sensor_id;sensor_type;location;lat;lon;timestamp;temperature;humidity
22779;DHT22;11556;51.194;3.800;2023-05-02T00:00:30;12.60;99.90
22779;DHT22;11556;51.194;3.800;2023-05-02T00:02:56;12.60;99.90
22779;DHT22;11556;51.194;3.800;2023-05-02T00:05:22;12.60;99.90
22779;DHT22;11556;51.194;3.800;2023-05-02T00:07:48;12.70;99.90
22779;DHT22;11556;51.194;3.800;2023-05-02T00:10:14;12.70;99.90
22779;DHT22;11556;51.194;3.800;2023-05-02T00:12:40;12.70;99.90
22779;DHT22;11556;51.194;3.800;2023-05-02T00:15:06;12.60;99.90
22779;DHT22;11556;51.194;3.800;2023-05-02T00:17:32;12.50;99.90
22779;DHT22;11556;51.194;3.800;2023-05-02T00:19:58;12.50;99.90
22779;DHT22;11556;51.194;3.800;2023-05-02T00:22:23;12.40;99.90
22779;DHT22;11556;51.194;3.800;2023-05-02T00:24:49;12.50;99.90
22779;DHT22;11556;51.194;3.800;2023-05-02T00:27:15;12.50;99.90
22779;DHT22;11556;51.194;3.800;2023-05-02T00:29:41;12.50;99.90
22779;DHT22;11556;51.194;3.800;2023-05-02T00:32:07;12.40;99.90
22779;DHT22;11556;51.194;3.800;2023-05-02T00:34:33;12.40;99.90
22779;DHT22;11556;51.194;3.800;2023-05-02T00:36:58;12.30;99.90
22779;DHT22;11556;51.194;3.800;2023-05-02T00:39:24;12.40;99.90
22779;DHT22;11556;51.194;3.800;2023-05-02T00:42:00;12.40;99.90
22779;DHT22;11556;51.194;3.800;2023-05-02T00:44:26;12.60;99.90
22779;DHT22;11556;51.194;3.800;2023-05-02T00:46:55;12.60;99.90
22779;DHT22;11556;51.194;3.800;2023-05-02T00:49:21;12.50;99.90
22779;DHT22;11556;51.194;3.800;2023-05-02T00:51:47;12.50;99.90
22779;DHT22;11556;51.194;3.800;2023-05-02T00:54:13;12.50;99.90
22779;DHT22;11556;51.194;3.800;2023-05-02T00:56:39;12.40;99.90
22779;DHT22;11556;51.194;3.800;2023-05-02T00:59:06;12.40;99.90
22779;DHT22;11556;51.194;3.800;2023-05-02T01:05:09;12.20;99.90
22779;DHT22;11556;51.194;3.800;2023-05-02T01:07:53;12.10;99.90
22779;DHT22;11556;51.194;3.800;2023-05-02T01:10:34;12.00;99.90
22779;DHT22;11556;51.194;3.800;2023-05-02T01:13:08;11.90;99.90
22779;DHT22;11556;51.194;3.800;2023-05-02T01:15:37;11.80;99.90
22779;DHT22;11556;51.194;3.800;2023-05-02T01:18:05;11.70;99.90
22779;DHT22;11556;51.194;3.800;2023-05-02T01:20:36;11.70;99.90
22779;DHT22;11556;51.194;3.800;2023-05-02T01:23:09;11.70;99.90
22779;DHT22;11556;51.194;3.800;2023-05-02T01:26:14;11.70;99.90
22779;DHT22;11556;51.194;3.800;2023-05-02T01:28:57;11.80;99.90
22779;DHT22;11556;51.194;3.800;2023-05-02T01:31:24;12.00;99.90
22779;DHT22;11556;51.194;3.800;2023-05-02T01:33:53;12.20;99.90
22779;DHT22;11556;51.194;3.800;2023-05-02T01:36:22;12.20;99.90
22779;DHT22;11556;51.194;3.800;2023-05-02T01:38:51;12.10;99.90
22779;DHT22;11556;51.194;3.800;2023-05-02T01:41:18;12.20;99.90
22779;DHT22;11556;51.194;3.800;2023-05-02T01:43:45;12.20;99.90
22779;DHT22;11556;51.194;3.800;2023-05-02T01:46:13;12.20;99.90
22779;DHT22;11556;51.194;3.800;2023-05-02T01:48:41;12.30;99.90
22779;DHT22;11556;51.194;3.800;2023-05-02T01:51:10;12.30;99.90
22779;DHT22;11556;51.194;3.800;2023-05-02T01:53:38;12.30;99.90
22779;DHT22;11556;51.194;3.800;2023-05-02T01:56:04;12.30;99.90
22779;DHT22;11556;51.194;3.800;2023-05-02T01:58:32;12.40;99.90
22779;DHT22;11556;51.194;3.800;2023-05-02T02:01:00;12.50;99.90
22779;DHT22;11556;51.194;3.800;2023-05-02T02:03:28;12.30;99.90
22779;DHT22;11556;51.194;3.800;2023-05-02T02:05:55;12.10;99.90
22779;DHT22;11556;51.194;3.800;2023-05-02T02:08:23;11.90;99.90
22779;DHT22;11556;51.194;3.800;2023-05-02T02:10:55;11.70;99.90
22779;DHT22;11556;51.194;3.800;2023-05-02T02:13:29;11.70;99.90
22779;DHT22;11556;51.194;3.800;2023-05-02T02:15:59;11.40;99.90
22779;DHT22;11556;51.194;3.800;2023-05-02T02:18:27;11.30;99.90
22779;DHT22;11556;51.194;3.800;2023-05-02T02:20:54;11.30;99.90
22779;DHT22;11556;51.194;3.800;2023-05-02T02:23:22;11.50;99.90
22779;DHT22;11556;51.194;3.800;2023-05-02T02:25:51;11.60;99.90
22779;DHT22;11556;51.194;3.800;2023-05-02T02:28:18;11.50;99.90
22779;DHT22;11556;51.194;3.800;2023-05-02T02:30:43;11.20;99.90
22779;DHT22;11556;51.194;3.800;2023-05-02T02:33:09;11.00;99.90
22779;DHT22;11556;51.194;3.800;2023-05-02T02:35:39;10.90;99.90
22779;DHT22;11556;51.194;3.800;2023-05-02T02:41:15;10.60;99.90
22779;DHT22;11556;51.194;3.800;2023-05-02T02:49:20;10.60;99.90
22779;DHT22;11556;51.194;3.800;2023-05-02T02:51:56;10.70;99.90
22779;DHT22;11556;51.194;3.800;2023-05-02T02:54:30;10.70;99.90
22779;DHT22;11556;51.194;3.800;2023-05-02T02:57:01;10.70;99.90
22779;DHT22;11556;51.194;3.800;2023-05-02T02:59:30;10.90;99.90
22779;DHT22;11556;51.194;3.800;2023-05-02T03:02:16;10.90;99.90
22779;DHT22;11556;51.194;3.800;2023-05-02T03:04:45;11.00;99.90
22779;DHT22;11556;51.194;3.800;2023-05-02T03:07:11;11.10;99.90
22779;DHT22;11556;51.194;3.800;2023-05-02T03:09:45;11.20;99.90
22779;DHT22;11556;51.194;3.800;2023-05-02T03:12:11;11.30;99.90
22779;DHT22;11556;51.194;3.800;2023-05-02T03:14:37;11.40;99.90
22779;DHT22;11556;51.194;3.800;2023-05-02T03:17:03;11.50;99.90
22779;DHT22;11556;51.194;3.800;2023-05-02T03:19:29;11.50;99.90
22779;DHT22;11556;51.194;3.800;2023-05-02T03:21:54;11.70;99.90
22779;DHT22;11556;51.194;3.800;2023-05-02T03:24:21;11.80;99.90
22779;DHT22;11556;51.194;3.800;2023-05-02T03:26:46;11.90;99.90
22779;DHT22;11556;51.194;3.800;2023-05-02T03:29:13;12.00;99.90
22779;DHT22;11556;51.194;3.800;2023-05-02T03:31:39;12.20;99.90
22779;DHT22;11556;51.194;3.800;2023-05-02T03:34:04;12.30;99.90
22779;DHT22;11556;51.194;3.800;2023-05-02T03:36:30;12.40;99.90
22779;DHT22;11556;51.194;3.800;2023-05-02T03:38:56;12.40;99.90
22779;DHT22;11556;51.194;3.800;2023-05-02T03:41:22;12.50;99.90
22779;DHT22;11556;51.194;3.800;2023-05-02T03:43:49;12.50;99.90
22779;DHT22;11556;51.194;3.800;2023-05-02T03:46:15;12.50;99.90
22779;DHT22;11556;51.194;3.800;2023-05-02T03:48:41;12.60;99.90
22779;DHT22;11556;51.194;3.800;2023-05-02T03:51:06;12.60;99.90
22779;DHT22;11556;51.194;3.800;2023-05-02T03:53:34;12.50;99.90
22779;DHT22;11556;51.194;3.800;2023-05-02T03:56:00;12.50;99.90
22779;DHT22;11556;51.194;3.800;2023-05-02T03:58:25;12.50;99.90
22779;DHT22;11556;51.194;3.800;2023-05-02T04:00:51;12.50;99.90
22779;DHT22;11556;51.194;3.800;2023-05-02T04:03:18;12.50;99.90
22779;DHT22;11556;51.194;3.800;2023-05-02T04:05:44;12.40;99.90
22779;DHT22;11556;51.194;3.800;2023-05-02T04:08:10;12.30;99.90
22779;DHT22;11556;51.194;3.800;2023-05-02T04:10:36;12.30;99.90
22779;DHT22;11556;51.194;3.800;2023-05-02T04:13:02;12.20;99.90
22779;DHT22;11556;51.194;3.800;2023-05-02T04:15:29;12.00;99.90
22779;DHT22;11556;51.194;3.800;2023-05-02T04:17:57;12.00;99.90
22779;DHT22;11556;51.194;3.800;2023-05-02T04:20:23;12.00;99.90
22779;DHT22;11556;51.194;3.800;2023-05-02T04:22:48;12.10;99.90
22779;DHT22;11556;51.194;3.800;2023-05-02T04:25:15;12.10;99.90
22779;DHT22;11556;51.194;3.800;2023-05-02T04:27:41;12.00;99.90
22779;DHT22;11556;51.194;3.800;2023-05-02T04:30:07;11.90;99.90
22779;DHT22;11556;51.194;3.800;2023-05-02T04:32:32;11.80;99.90
22779;DHT22;11556;51.194;3.800;2023-05-02T04:34:58;11.60;99.90
22779;DHT22;11556;51.194;3.800;2023-05-02T04:37:24;11.60;99.90
22779;DHT22;11556;51.194;3.800;2023-05-02T04:39:50;11.60;99.90
22779;DHT22;11556;51.194;3.800;2023-05-02T04:42:17;11.60;99.90
22779;DHT22;11556;51.194;3.800;2023-05-02T04:44:44;11.60;99.90
22779;DHT22;11556;51.194;3.800;2023-05-02T04:47:10;11.70;99.90
22779;DHT22;11556;51.194;3.800;2023-05-02T04:49:36;11.60;99.90
22779;DHT22;11556;51.194;3.800;2023-05-02T04:52:02;11.60;99.90
22779;DHT22;11556;51.194;3.800;2023-05-02T04:54:27;11.70;99.90
22779;DHT22;11556;51.194;3.800;2023-05-02T04:56:53;11.60;99.90
22779;DHT22;11556;51.194;3.800;2023-05-02T04:59:19;11.70;99.90
22779;DHT22;11556;51.194;3.800;2023-05-02T05:01:44;11.80;99.90
22779;DHT22;11556;51.194;3.800;2023-05-02T05:04:10;11.70;99.90
22779;DHT22;11556;51.194;3.800;2023-05-02T05:06:36;11.80;99.90
22779;DHT22;11556;51.194;3.800;2023-05-02T05:09:02;11.70;99.90
22779;DHT22;11556;51.194;3.800;2023-05-02T05:11:28;11.60;99.90
22779;DHT22;11556;51.194;3.800;2023-05-02T05:13:53;11.50;99.90
22779;DHT22;11556;51.194;3.800;2023-05-02T05:16:19;11.50;99.90
22779;DHT22;11556;51.194;3.800;2023-05-02T05:18:45;11.40;99.90
22779;DHT22;11556;51.194;3.800;2023-05-02T05:21:11;11.40;99.90
22779;DHT22;11556;51.194;3.800;2023-05-02T05:23:37;11.40;99.90
22779;DHT22;11556;51.194;3.800;2023-05-02T05:26:10;11.50;99.90
22779;DHT22;11556;51.194;3.800;2023-05-02T05:28:36;11.50;99.90
22779;DHT22;11556;51.194;3.800;2023-05-02T05:31:09;11.50;99.90
22779;DHT22;11556;51.194;3.800;2023-05-02T05:33:36;11.70;99.90
22779;DHT22;11556;51.194;3.800;2023-05-02T05:36:06;11.60;99.90
22779;DHT22;11556;51.194;3.800;2023-05-02T05:38:32;11.50;99.90
22779;DHT22;11556;51.194;3.800;2023-05-02T05:40:58;11.50;99.90
22779;DHT22;11556;51.194;3.800;2023-05-02T05:43:23;11.70;99.90
22779;DHT22;11556;51.194;3.800;2023-05-02T05:45:54;11.60;99.90
22779;DHT22;11556;51.194;3.800;2023-05-02T05:48:20;11.70;99.90
22779;DHT22;11556;51.194;3.800;2023-05-02T05:50:46;11.60;99.90
22779;DHT22;11556;51.194;3.800;2023-05-02T05:53:13;11.80;99.90
22779;DHT22;11556;51.194;3.800;2023-05-02T05:55:39;11.90;99.90
22779;DHT22;11556;51.194;3.800;2023-05-02T05:58:05;11.80;99.90
22779;DHT22;11556;51.194;3.800;2023-05-02T06:00:35;11.80;99.90
22779;DHT22;11556;51.194;3.800;2023-05-02T06:03:00;12.00;99.90
22779;DHT22;11556;51.194;3.800;2023-05-02T06:05:26;12.00;99.90
22779;DHT22;11556;51.194;3.800;2023-05-02T06:07:52;12.20;99.90
22779;DHT22;11556;51.194;3.800;2023-05-02T06:10:18;12.40;99.90
22779;DHT22;11556;51.194;3.800;2023-05-02T06:12:43;12.50;99.90
22779;DHT22;11556;51.194;3.800;2023-05-02T06:15:09;12.60;99.90
22779;DHT22;11556;51.194;3.800;2023-05-02T06:17:35;12.60;99.90
22779;DHT22;11556;51.194;3.800;2023-05-02T06:20:01;12.40;99.90
22779;DHT22;11556;51.194;3.800;2023-05-02T06:22:26;12.40;99.90
22779;DHT22;11556;51.194;3.800;2023-05-02T06:24:52;12.40;99.90
22779;DHT22;11556;51.194;3.800;2023-05-02T06:27:18;12.50;99.90
22779;DHT22;11556;51.194;3.800;2023-05-02T06:29:43;12.50;99.90
22779;DHT22;11556;51.194;3.800;2023-05-02T06:32:09;12.70;99.90
22779;DHT22;11556;51.194;3.800;2023-05-02T06:34:35;12.90;99.90
22779;DHT22;11556;51.194;3.800;2023-05-02T06:37:01;13.10;99.90
22779;DHT22;11556;51.194;3.800;2023-05-02T06:39:26;13.50;99.90
22779;DHT22;11556;51.194;3.800;2023-05-02T06:41:58;13.90;99.90
22779;DHT22;11556;51.194;3.800;2023-05-02T06:44:24;14.30;99.90
22779;DHT22;11556;51.194;3.800;2023-05-02T06:46:50;14.90;99.90
22779;DHT22;11556;51.194;3.800;2023-05-02T06:49:16;16.10;99.90
22779;DHT22;11556;51.194;3.800;2023-05-02T06:51:42;17.00;99.90
22779;DHT22;11556;51.194;3.800;2023-05-02T06:54:08;17.60;99.90
22779;DHT22;11556;51.194;3.800;2023-05-02T06:56:34;16.90;99.90
22779;DHT22;11556;51.194;3.800;2023-05-02T06:59:00;16.30;99.90
22779;DHT22;11556;51.194;3.800;2023-05-02T07:01:26;15.80;99.90
22779;DHT22;11556;51.194;3.800;2023-05-02T07:03:52;15.50;99.90
22779;DHT22;11556;51.194;3.800;2023-05-02T07:06:18;15.40;99.90
22779;DHT22;11556;51.194;3.800;2023-05-02T07:08:44;14.80;99.90
22779;DHT22;11556;51.194;3.800;2023-05-02T07:11:10;14.70;99.90
22779;DHT22;11556;51.194;3.800;2023-05-02T07:13:36;14.50;99.90
22779;DHT22;11556;51.194;3.800;2023-05-02T07:16:01;14.50;99.90
22779;DHT22;11556;51.194;3.800;2023-05-02T07:18:27;14.30;99.90
22779;DHT22;11556;51.194;3.800;2023-05-02T07:20:53;14.30;99.90
22779;DHT22;11556;51.194;3.800;2023-05-02T07:23:19;14.40;99.90
22779;DHT22;11556;51.194;3.800;2023-05-02T07:25:46;14.50;99.90
22779;DHT22;11556;51.194;3.800;2023-05-02T07:28:12;14.70;99.90
22779;DHT22;11556;51.194;3.800;2023-05-02T07:30:39;14.50;99.90
22779;DHT22;11556;51.194;3.800;2023-05-02T07:33:05;14.50;99.90
22779;DHT22;11556;51.194;3.800;2023-05-02T07:35:30;15.00;99.90
22779;DHT22;11556;51.194;3.800;2023-05-02T07:37:56;15.50;99.90
22779;DHT22;11556;51.194;3.800;2023-05-02T07:40:21;15.50;99.90
22779;DHT22;11556;51.194;3.800;2023-05-02T07:42:47;15.90;99.90
22779;DHT22;11556;51.194;3.800;2023-05-02T07:45:15;16.40;99.90
22779;DHT22;11556;51.194;3.800;2023-05-02T07:47:40;16.60;99.90
22779;DHT22;11556;51.194;3.800;2023-05-02T07:50:06;16.80;99.90
22779;DHT22;11556;51.194;3.800;2023-05-02T07:52:33;16.70;99.90
22779;DHT22;11556;51.194;3.800;2023-05-02T07:55:00;16.40;99.90
22779;DHT22;11556;51.194;3.800;2023-05-02T07:57:26;16.40;99.90
22779;DHT22;11556;51.194;3.800;2023-05-02T07:59:52;16.30;99.90
22779;DHT22;11556;51.194;3.800;2023-05-02T08:02:17;16.20;99.90
22779;DHT22;11556;51.194;3.800;2023-05-02T08:04:46;15.80;99.90
22779;DHT22;11556;51.194;3.800;2023-05-02T08:07:12;15.90;99.90
22779;DHT22;11556;51.194;3.800;2023-05-02T08:09:38;15.70;99.90
22779;DHT22;11556;51.194;3.800;2023-05-02T08:12:03;15.60;99.90
22779;DHT22;11556;51.194;3.800;2023-05-02T08:14:29;15.40;99.90
22779;DHT22;11556;51.194;3.800;2023-05-02T08:16:56;15.30;99.90
22779;DHT22;11556;51.194;3.800;2023-05-02T08:19:22;15.40;99.90
22779;DHT22;11556;51.194;3.800;2023-05-02T08:21:47;15.80;99.90
22779;DHT22;11556;51.194;3.800;2023-05-02T08:24:13;15.90;99.90
22779;DHT22;11556;51.194;3.800;2023-05-02T08:26:39;15.80;99.90
22779;DHT22;11556;51.194;3.800;2023-05-02T08:29:04;15.50;99.90
22779;DHT22;11556;51.194;3.800;2023-05-02T08:31:30;15.40;99.90
22779;DHT22;11556;51.194;3.800;2023-05-02T08:33:56;15.40;99.90
22779;DHT22;11556;51.194;3.800;2023-05-02T08:36:22;15.60;99.90
22779;DHT22;11556;51.194;3.800;2023-05-02T08:38:47;16.60;99.90
22779;DHT22;11556;51.194;3.800;2023-05-02T08:41:15;17.70;99.90
22779;DHT22;11556;51.194;3.800;2023-05-02T08:43:42;18.50;99.90
22779;DHT22;11556;51.194;3.800;2023-05-02T08:46:10;19.00;99.90
22779;DHT22;11556;51.194;3.800;2023-05-02T08:48:38;19.10;99.90
22779;DHT22;11556;51.194;3.800;2023-05-02T08:51:10;18.60;99.90
22779;DHT22;11556;51.194;3.800;2023-05-02T08:53:37;19.30;99.50
22779;DHT22;11556;51.194;3.800;2023-05-02T08:56:03;19.90;98.80
22779;DHT22;11556;51.194;3.800;2023-05-02T08:58:29;19.90;96.60
22779;DHT22;11556;51.194;3.800;2023-05-02T09:00:56;19.80;96.60
22779;DHT22;11556;51.194;3.800;2023-05-02T09:03:29;20.10;94.50
22779;DHT22;11556;51.194;3.800;2023-05-02T09:06:11;21.10;92.60
22779;DHT22;11556;51.194;3.800;2023-05-02T09:08:38;20.80;91.40
22779;DHT22;11556;51.194;3.800;2023-05-02T09:11:11;20.60;91.30
22779;DHT22;11556;51.194;3.800;2023-05-02T09:13:37;21.20;90.60
22779;DHT22;11556;51.194;3.800;2023-05-02T09:16:10;21.70;86.30
22779;DHT22;11556;51.194;3.800;2023-05-02T09:18:38;21.70;82.40
22779;DHT22;11556;51.194;3.800;2023-05-02T09:21:07;21.40;83.90
22779;DHT22;11556;51.194;3.800;2023-05-02T09:23:43;21.10;81.50
22779;DHT22;11556;51.194;3.800;2023-05-02T09:28:46;20.40;84.30
22779;DHT22;11556;51.194;3.800;2023-05-02T09:31:18;21.10;82.80
22779;DHT22;11556;51.194;3.800;2023-05-02T09:33:44;21.80;78.20
22779;DHT22;11556;51.194;3.800;2023-05-02T09:36:18;21.40;80.60
22779;DHT22;11556;51.194;3.800;2023-05-02T09:38:47;21.70;77.30
22779;DHT22;11556;51.194;3.800;2023-05-02T09:41:13;21.90;76.70
22779;DHT22;11556;51.194;3.800;2023-05-02T09:43:39;21.60;76.70
22779;DHT22;11556;51.194;3.800;2023-05-02T09:46:08;19.40;84.10
22779;DHT22;11556;51.194;3.800;2023-05-02T09:48:54;18.70;87.40
22779;DHT22;11556;51.194;3.800;2023-05-02T09:51:25;19.90;85.20
22779;DHT22;11556;51.194;3.800;2023-05-02T09:53:51;20.50;80.70
22779;DHT22;11556;51.194;3.800;2023-05-02T09:56:17;21.40;77.90
22779;DHT22;11556;51.194;3.800;2023-05-02T09:58:44;22.00;76.20
22779;DHT22;11556;51.194;3.800;2023-05-02T10:01:17;22.10;72.80
22779;DHT22;11556;51.194;3.800;2023-05-02T10:03:46;22.50;71.00
22779;DHT22;11556;51.194;3.800;2023-05-02T10:06:12;22.70;68.70
22779;DHT22;11556;51.194;3.800;2023-05-02T10:08:38;22.00;71.20
22779;DHT22;11556;51.194;3.800;2023-05-02T10:11:07;21.60;71.70
22779;DHT22;11556;51.194;3.800;2023-05-02T10:13:33;21.90;70.60
22779;DHT22;11556;51.194;3.800;2023-05-02T10:16:03;20.80;75.00
22779;DHT22;11556;51.194;3.800;2023-05-02T10:18:41;21.70;72.10
22779;DHT22;11556;51.194;3.800;2023-05-02T10:21:11;21.10;73.30
22779;DHT22;11556;51.194;3.800;2023-05-02T10:23:41;21.90;70.90
22779;DHT22;11556;51.194;3.800;2023-05-02T10:26:11;22.40;69.50
22779;DHT22;11556;51.194;3.800;2023-05-02T10:28:37;21.90;68.20
22779;DHT22;11556;51.194;3.800;2023-05-02T10:31:04;21.70;69.90
22779;DHT22;11556;51.194;3.800;2023-05-02T10:33:33;21.80;69.40
22779;DHT22;11556;51.194;3.800;2023-05-02T10:36:00;22.10;68.60
22779;DHT22;11556;51.194;3.800;2023-05-02T10:38:26;22.20;66.80
22779;DHT22;11556;51.194;3.800;2023-05-02T10:40:57;21.80;66.90
22779;DHT22;11556;51.194;3.800;2023-05-02T10:43:30;21.40;67.30
22779;DHT22;11556;51.194;3.800;2023-05-02T10:45:56;21.20;69.10
22779;DHT22;11556;51.194;3.800;2023-05-02T10:48:26;21.30;69.10
22779;DHT22;11556;51.194;3.800;2023-05-02T10:50:53;21.30;68.50
22779;DHT22;11556;51.194;3.800;2023-05-02T10:53:33;21.50;67.10
22779;DHT22;11556;51.194;3.800;2023-05-02T10:56:07;22.20;66.60
22779;DHT22;11556;51.194;3.800;2023-05-02T10:58:33;21.80;66.40
22779;DHT22;11556;51.194;3.800;2023-05-02T11:04:00;22.50;64.30
22779;DHT22;11556;51.194;3.800;2023-05-02T11:06:27;22.00;65.50
22779;DHT22;11556;51.194;3.800;2023-05-02T11:11:50;21.90;66.80
22779;DHT22;11556;51.194;3.800;2023-05-02T11:24:45;21.60;69.40
22779;DHT22;11556;51.194;3.800;2023-05-02T11:30:06;22.50;67.20
22779;DHT22;11556;51.194;3.800;2023-05-02T11:35:21;22.20;69.40
22779;DHT22;11556;51.194;3.800;2023-05-02T11:38:01;23.00;66.00
22779;DHT22;11556;51.194;3.800;2023-05-02T11:40:30;23.20;64.50
22779;DHT22;11556;51.194;3.800;2023-05-02T11:42:57;22.70;64.20
22779;DHT22;11556;51.194;3.800;2023-05-02T11:45:34;21.10;69.00
22779;DHT22;11556;51.194;3.800;2023-05-02T11:48:04;20.90;69.40
22779;DHT22;11556;51.194;3.800;2023-05-02T11:50:42;20.70;69.20
22779;DHT22;11556;51.194;3.800;2023-05-02T11:53:19;22.20;66.90
22779;DHT22;11556;51.194;3.800;2023-05-02T11:55:56;23.20;61.90
22779;DHT22;11556;51.194;3.800;2023-05-02T11:58:24;22.40;63.20
22779;DHT22;11556;51.194;3.800;2023-05-02T12:00:50;22.60;64.10
22779;DHT22;11556;51.194;3.800;2023-05-02T12:03:32;22.40;62.30
22779;DHT22;11556;51.194;3.800;2023-05-02T12:06:14;21.60;66.30
22779;DHT22;11556;51.194;3.800;2023-05-02T12:08:42;22.90;62.70
22779;DHT22;11556;51.194;3.800;2023-05-02T12:11:08;22.70;62.40
22779;DHT22;11556;51.194;3.800;2023-05-02T12:13:34;22.40;62.40
22779;DHT22;11556;51.194;3.800;2023-05-02T12:16:00;23.00;60.20
22779;DHT22;11556;51.194;3.800;2023-05-02T12:18:26;20.90;63.10
22779;DHT22;11556;51.194;3.800;2023-05-02T12:20:54;20.80;66.00
22779;DHT22;11556;51.194;3.800;2023-05-02T12:23:21;21.10;65.40
22779;DHT22;11556;51.194;3.800;2023-05-02T12:25:48;20.40;67.10
22779;DHT22;11556;51.194;3.800;2023-05-02T12:28:16;21.10;64.00
22779;DHT22;11556;51.194;3.800;2023-05-02T12:30:41;20.40;65.20
22779;DHT22;11556;51.194;3.800;2023-05-02T12:33:07;19.90;67.60
22779;DHT22;11556;51.194;3.800;2023-05-02T12:35:34;19.40;68.60
22779;DHT22;11556;51.194;3.800;2023-05-02T12:38:19;20.00;67.30
22779;DHT22;11556;51.194;3.800;2023-05-02T12:40:52;20.70;64.90
22779;DHT22;11556;51.194;3.800;2023-05-02T12:43:19;21.10;62.80
22779;DHT22;11556;51.194;3.800;2023-05-02T12:45:45;20.40;64.70
22779;DHT22;11556;51.194;3.800;2023-05-02T12:48:26;20.90;63.90
22779;DHT22;11556;51.194;3.800;2023-05-02T12:50:53;21.40;62.30
22779;DHT22;11556;51.194;3.800;2023-05-02T12:53:38;21.80;61.60
22779;DHT22;11556;51.194;3.800;2023-05-02T12:56:05;22.00;62.20
22779;DHT22;11556;51.194;3.800;2023-05-02T12:58:39;21.30;62.50
22779;DHT22;11556;51.194;3.800;2023-05-02T13:01:06;21.20;62.50
22779;DHT22;11556;51.194;3.800;2023-05-02T13:03:32;21.40;63.50
22779;DHT22;11556;51.194;3.800;2023-05-02T13:05:58;21.10;63.30
22779;DHT22;11556;51.194;3.800;2023-05-02T13:08:24;21.50;61.20
22779;DHT22;11556;51.194;3.800;2023-05-02T13:10:49;21.20;62.60
22779;DHT22;11556;51.194;3.800;2023-05-02T13:13:15;21.50;61.00
22779;DHT22;11556;51.194;3.800;2023-05-02T13:15:41;21.30;62.70
22779;DHT22;11556;51.194;3.800;2023-05-02T13:18:07;21.70;61.00
22779;DHT22;11556;51.194;3.800;2023-05-02T13:20:33;20.90;62.40
22779;DHT22;11556;51.194;3.800;2023-05-02T13:22:59;21.10;62.20
22779;DHT22;11556;51.194;3.800;2023-05-02T13:25:24;21.40;61.30
22779;DHT22;11556;51.194;3.800;2023-05-02T13:27:52;20.90;62.50
22779;DHT22;11556;51.194;3.800;2023-05-02T13:30:18;21.60;61.00
22779;DHT22;11556;51.194;3.800;2023-05-02T13:32:43;22.10;59.50
22779;DHT22;11556;51.194;3.800;2023-05-02T13:35:09;21.60;60.90
22779;DHT22;11556;51.194;3.800;2023-05-02T13:37:38;20.30;63.30
22779;DHT22;11556;51.194;3.800;2023-05-02T13:40:05;19.70;65.90
22779;DHT22;11556;51.194;3.800;2023-05-02T13:42:31;20.50;65.40
22779;DHT22;11556;51.194;3.800;2023-05-02T13:44:56;21.80;61.10
22779;DHT22;11556;51.194;3.800;2023-05-02T13:47:22;21.50;59.40
22779;DHT22;11556;51.194;3.800;2023-05-02T13:49:49;20.50;62.90
22779;DHT22;11556;51.194;3.800;2023-05-02T13:52:15;19.90;65.20
22779;DHT22;11556;51.194;3.800;2023-05-02T13:54:40;19.80;66.10
22779;DHT22;11556;51.194;3.800;2023-05-02T13:57:06;19.90;67.40
22779;DHT22;11556;51.194;3.800;2023-05-02T13:59:32;19.30;68.20
22779;DHT22;11556;51.194;3.800;2023-05-02T14:01:57;19.40;68.50
22779;DHT22;11556;51.194;3.800;2023-05-02T14:04:23;20.30;65.70
22779;DHT22;11556;51.194;3.800;2023-05-02T14:06:49;20.10;66.30
22779;DHT22;11556;51.194;3.800;2023-05-02T14:09:14;20.10;66.90
22779;DHT22;11556;51.194;3.800;2023-05-02T14:11:41;20.30;67.40
22779;DHT22;11556;51.194;3.800;2023-05-02T14:14:08;20.20;67.20
22779;DHT22;11556;51.194;3.800;2023-05-02T14:16:37;19.50;69.90
22779;DHT22;11556;51.194;3.800;2023-05-02T14:19:02;19.80;68.80
22779;DHT22;11556;51.194;3.800;2023-05-02T14:21:28;20.50;66.40
22779;DHT22;11556;51.194;3.800;2023-05-02T14:23:54;20.30;65.20
22779;DHT22;11556;51.194;3.800;2023-05-02T14:26:19;20.70;64.10
22779;DHT22;11556;51.194;3.800;2023-05-02T14:28:45;21.30;64.50
22779;DHT22;11556;51.194;3.800;2023-05-02T14:31:11;20.60;64.10
22779;DHT22;11556;51.194;3.800;2023-05-02T14:33:37;20.40;65.30
22779;DHT22;11556;51.194;3.800;2023-05-02T14:36:03;20.10;64.90
22779;DHT22;11556;51.194;3.800;2023-05-02T14:38:29;19.10;67.20
22779;DHT22;11556;51.194;3.800;2023-05-02T14:40:55;19.00;67.90
22779;DHT22;11556;51.194;3.800;2023-05-02T14:43:21;18.90;68.50
22779;DHT22;11556;51.194;3.800;2023-05-02T14:45:46;18.70;70.20
22779;DHT22;11556;51.194;3.800;2023-05-02T14:48:12;18.20;71.50
22779;DHT22;11556;51.194;3.800;2023-05-02T14:50:43;18.60;73.30
22779;DHT22;11556;51.194;3.800;2023-05-02T14:53:09;18.50;71.80
22779;DHT22;11556;51.194;3.800;2023-05-02T14:55:35;17.80;73.90
22779;DHT22;11556;51.194;3.800;2023-05-02T14:58:01;18.00;73.40
22779;DHT22;11556;51.194;3.800;2023-05-02T15:00:27;18.80;69.90
22779;DHT22;11556;51.194;3.800;2023-05-02T15:02:52;19.30;69.00
22779;DHT22;11556;51.194;3.800;2023-05-02T15:05:18;18.80;70.30
22779;DHT22;11556;51.194;3.800;2023-05-02T15:07:44;19.20;66.90
22779;DHT22;11556;51.194;3.800;2023-05-02T15:10:10;19.30;66.80
22779;DHT22;11556;51.194;3.800;2023-05-02T15:12:35;19.30;66.80
22779;DHT22;11556;51.194;3.800;2023-05-02T15:15:04;18.90;67.00
22779;DHT22;11556;51.194;3.800;2023-05-02T15:17:30;18.40;69.50
22779;DHT22;11556;51.194;3.800;2023-05-02T15:19:56;17.90;72.90
22779;DHT22;11556;51.194;3.800;2023-05-02T15:22:21;17.40;74.40
22779;DHT22;11556;51.194;3.800;2023-05-02T15:24:49;17.40;75.00
22779;DHT22;11556;51.194;3.800;2023-05-02T15:27:15;17.50;71.90
22779;DHT22;11556;51.194;3.800;2023-05-02T15:29:41;17.20;73.80
22779;DHT22;11556;51.194;3.800;2023-05-02T15:32:06;17.30;72.80
22779;DHT22;11556;51.194;3.800;2023-05-02T15:34:32;17.00;75.30
22779;DHT22;11556;51.194;3.800;2023-05-02T15:36:58;16.80;75.50
22779;DHT22;11556;51.194;3.800;2023-05-02T15:39:25;16.80;74.20
22779;DHT22;11556;51.194;3.800;2023-05-02T15:41:52;16.60;76.20
22779;DHT22;11556;51.194;3.800;2023-05-02T15:44:18;16.20;79.70
22779;DHT22;11556;51.194;3.800;2023-05-02T15:46:43;16.20;77.90
22779;DHT22;11556;51.194;3.800;2023-05-02T15:49:11;16.20;77.70
22779;DHT22;11556;51.194;3.800;2023-05-02T15:51:37;16.30;77.60
22779;DHT22;11556;51.194;3.800;2023-05-02T15:54:03;16.30;77.10
22779;DHT22;11556;51.194;3.800;2023-05-02T15:56:31;16.40;77.00
22779;DHT22;11556;51.194;3.800;2023-05-02T15:58:56;16.40;77.80
22779;DHT22;11556;51.194;3.800;2023-05-02T16:01:22;16.30;80.60
22779;DHT22;11556;51.194;3.800;2023-05-02T16:03:48;15.90;82.20
22779;DHT22;11556;51.194;3.800;2023-05-02T16:06:14;15.70;82.70
22779;DHT22;11556;51.194;3.800;2023-05-02T16:08:41;15.70;82.30